sensor_id;sensor_type;location;lat;lon;timestamp;pressure;altitude;pressure_sealevel;temperature;humidity
76998;BME280;65930;48.874;10.734;2023-01-15T00:00:02;95044.19;;;8.50;68.89
76998;BME280;65930;48.874;10.734;2023-01-15T00:02:31;95028.41;;;8.50;69.49
76998;BME280;65930;48.874;10.734;2023-01-15T00:04:59;95025.00;;;8.39;70.21
76998;BME280;65930;48.874;10.734;2023-01-15T00:07:29;95019.56;;;8.32;70.40
76998;BME280;65930;48.874;10.734;2023-01-15T00:09:59;95013.25;;;8.31;70.85
76998;BME280;65930;48.874;10.734;2023-01-15T00:12:27;95025.88;;;8.29;70.94
76998;BME280;65930;48.874;10.734;2023-01-15T00:14:54;95004.59;;;8.26;70.84
76998;BME280;65930;48.874;10.734;2023-01-15T00:17:24;95010.16;;;8.22;71.76
76998;BME280;65930;48.874;10.734;2023-01-15T00:19:52;95002.72;;;8.19;71.94
76998;BME280;65930;48.874;10.734;2023-01-15T00:22:20;94988.25;;;8.08;72.18
76998;BME280;65930;48.874;10.734;2023-01-15T00:24:48;94992.22;;;8.04;72.33
76998;BME280;65930;48.874;10.734;2023-01-15T00:27:34;94998.94;;;8.03;72.62
76998;BME280;65930;48.874;10.734;2023-01-15T00:30:08;94993.13;;;7.93;73.27
76998;BME280;65930;48.874;10.734;2023-01-15T00:32:37;94986.03;;;7.96;73.27
76998;BME280;65930;48.874;10.734;2023-01-15T00:35:06;94976.22;;;7.91;73.89
76998;BME280;65930;48.874;10.734;2023-01-15T00:37:34;94975.84;;;7.89;73.59
76998;BME280;65930;48.874;10.734;2023-01-15T00:40:03;94966.47;;;7.83;74.16
76998;BME280;65930;48.874;10.734;2023-01-15T00:42:31;94965.69;;;7.79;74.22
76998;BME280;65930;48.874;10.734;2023-01-15T00:45:00;94966.06;;;7.81;73.93
76998;BME280;65930;48.874;10.734;2023-01-15T00:47:35;94964.06;;;7.85;73.91
76998;BME280;65930;48.874;10.734;2023-01-15T00:50:06;94953.03;;;7.85;73.49
76998;BME280;65930;48.874;10.734;2023-01-15T00:52:34;94956.19;;;7.87;73.48
76998;BME280;65930;48.874;10.734;2023-01-15T00:55:03;94946.72;;;7.88;72.89
76998;BME280;65930;48.874;10.734;2023-01-15T00:57:31;94951.03;;;7.89;73.09
76998;BME280;65930;48.874;10.734;2023-01-15T01:00:00;94939.19;;;7.92;71.93
76998;BME280;65930;48.874;10.734;2023-01-15T01:02:29;94942.69;;;7.96;71.96
76998;BME280;65930;48.874;10.734;2023-01-15T01:04:57;94934.75;;;7.98;70.83
76998;BME280;65930;48.874;10.734;2023-01-15T01:07:25;94935.97;;;7.97;71.24
76998;BME280;65930;48.874;10.734;2023-01-15T01:09:53;94947.31;;;8.03;70.64
76998;BME280;65930;48.874;10.734;2023-01-15T01:12:21;94939.72;;;8.14;69.25
76998;BME280;65930;48.874;10.734;2023-01-15T01:14:49;94934.91;;;8.22;68.82
76998;BME280;65930;48.874;10.734;2023-01-15T01:17:18;94936.13;;;8.21;68.68
76998;BME280;65930;48.874;10.734;2023-01-15T01:19:46;94937.63;;;8.25;68.85
76998;BME280;65930;48.874;10.734;2023-01-15T01:22:14;94929.81;;;8.20;68.13
76998;BME280;65930;48.874;10.734;2023-01-15T01:24:42;94936.13;;;8.17;68.79
76998;BME280;65930;48.874;10.734;2023-01-15T01:27:10;94938.09;;;8.17;68.47
76998;BME280;65930;48.874;10.734;2023-01-15T01:29:38;94931.34;;;8.21;68.13
76998;BME280;65930;48.874;10.734;2023-01-15T01:32:06;94932.13;;;8.22;67.72
76998;BME280;65930;48.874;10.734;2023-01-15T01:34:35;94935.28;;;8.24;67.59
76998;BME280;65930;48.874;10.734;2023-01-15T01:37:03;94922.66;;;8.23;68.08
76998;BME280;65930;48.874;10.734;2023-01-15T01:39:31;94913.13;;;8.31;67.01
76998;BME280;65930;48.874;10.734;2023-01-15T01:41:59;94923.78;;;8.29;66.82
76998;BME280;65930;48.874;10.734;2023-01-15T01:44:59;94914.03;;;8.21;67.84
76998;BME280;65930;48.874;10.734;2023-01-15T01:47:30;94903.31;;;8.30;66.17
76998;BME280;65930;48.874;10.734;2023-01-15T01:50:05;94897.81;;;8.30;66.72
76998;BME280;65930;48.874;10.734;2023-01-15T01:52:41;94901.28;;;8.34;65.93
76998;BME280;65930;48.874;10.734;2023-01-15T01:55:14;94892.28;;;8.30;65.79
76998;BME280;65930;48.874;10.734;2023-01-15T01:57:43;94880.78;;;8.35;65.20
76998;BME280;65930;48.874;10.734;2023-01-15T02:00:14;94876.81;;;8.36;65.06
76998;BME280;65930;48.874;10.734;2023-01-15T02:02:45;94879.56;;;8.36;64.57
76998;BME280;65930;48.874;10.734;2023-01-15T02:05:22;94876.78;;;8.39;64.77
76998;BME280;65930;48.874;10.734;2023-01-15T02:07:52;94853.53;;;8.37;64.56
76998;BME280;65930;48.874;10.734;2023-01-15T02:10:20;94866.41;;;8.47;64.27
76998;BME280;65930;48.874;10.734;2023-01-15T02:12:54;94854.47;;;8.57;63.37
76998;BME280;65930;48.874;10.734;2023-01-15T02:15:33;94858.81;;;8.55;63.73
76998;BME280;65930;48.874;10.734;2023-01-15T02:18:11;94847.31;;;8.60;63.27
76998;BME280;65930;48.874;10.734;2023-01-15T02:20:49;94852.16;;;8.52;63.53
76998;BME280;65930;48.874;10.734;2023-01-15T02:23:32;94835.44;;;8.63;62.83
76998;BME280;65930;48.874;10.734;2023-01-15T02:29:16;94825.91;;;8.67;62.49
76998;BME280;65930;48.874;10.734;2023-01-15T02:31:51;94814.13;;;8.63;62.74
76998;BME280;65930;48.874;10.734;2023-01-15T02:34:24;94814.41;;;8.72;62.10
76998;BME280;65930;48.874;10.734;2023-01-15T02:36:57;94813.25;;;8.70;62.28
76998;BME280;65930;48.874;10.734;2023-01-15T02:39:29;94817.16;;;8.72;62.28
76998;BME280;65930;48.874;10.734;2023-01-15T02:42:02;94819.06;;;8.75;61.63
76998;BME280;65930;48.874;10.734;2023-01-15T02:44:36;94814.69;;;8.78;61.77
76998;BME280;65930;48.874;10.734;2023-01-15T02:47:09;94814.94;;;8.87;61.36
76998;BME280;65930;48.874;10.734;2023-01-15T02:49:40;94814.66;;;8.81;61.60
76998;BME280;65930;48.874;10.734;2023-01-15T02:52:15;94815.00;;;8.83;61.45
76998;BME280;65930;48.874;10.734;2023-01-15T02:54:50;94819.31;;;8.84;62.11
76998;BME280;65930;48.874;10.734;2023-01-15T02:57:22;94822.81;;;8.89;61.82
76998;BME280;65930;48.874;10.734;2023-01-15T02:59:57;94815.97;;;8.97;61.55
76998;BME280;65930;48.874;10.734;2023-01-15T03:02:32;94816.81;;;8.94;62.03
76998;BME280;65930;48.874;10.734;2023-01-15T03:05:08;94833.63;;;9.03;61.87
76998;BME280;65930;48.874;10.734;2023-01-15T03:07:45;94819.81;;;9.03;62.15
76998;BME280;65930;48.874;10.734;2023-01-15T03:10:15;94813.19;;;8.97;62.09
76998;BME280;65930;48.874;10.734;2023-01-15T03:12:47;94801.59;;;9.05;61.71
76998;BME280;65930;48.874;10.734;2023-01-15T03:15:50;94793.63;;;9.11;62.44
76998;BME280;65930;48.874;10.734;2023-01-15T03:18:42;94786.50;;;9.13;62.18
76998;BME280;65930;48.874;10.734;2023-01-15T03:21:16;94785.22;;;9.18;62.49
76998;BME280;65930;48.874;10.734;2023-01-15T03:23:51;94784.38;;;9.21;62.71
76998;BME280;65930;48.874;10.734;2023-01-15T03:26:20;94784.75;;;9.23;62.81
76998;BME280;65930;48.874;10.734;2023-01-15T03:28:49;94800.59;;;9.19;62.77
76998;BME280;65930;48.874;10.734;2023-01-15T03:31:19;94788.69;;;9.22;62.80
76998;BME280;65930;48.874;10.734;2023-01-15T03:33:47;94788.63;;;9.25;62.99
76998;BME280;65930;48.874;10.734;2023-01-15T03:36:15;94794.88;;;9.29;62.79
76998;BME280;65930;48.874;10.734;2023-01-15T03:38:44;94791.06;;;9.23;63.21
76998;BME280;65930;48.874;10.734;2023-01-15T03:41:23;94786.53;;;9.33;62.99
76998;BME280;65930;48.874;10.734;2023-01-15T03:44:03;94789.34;;;9.29;63.35
76998;BME280;65930;48.874;10.734;2023-01-15T03:46:58;94786.66;;;9.26;63.43
76998;BME280;65930;48.874;10.734;2023-01-15T03:49:39;94794.72;;;9.17;64.43
76998;BME280;65930;48.874;10.734;2023-01-15T03:52:17;94782.47;;;9.18;64.72
76998;BME280;65930;48.874;10.734;2023-01-15T03:54:52;94767.44;;;9.19;64.79
76998;BME280;65930;48.874;10.734;2023-01-15T03:57:33;94767.94;;;9.14;64.75
76998;BME280;65930;48.874;10.734;2023-01-15T04:00:09;94776.00;;;9.24;64.40
76998;BME280;65930;48.874;10.734;2023-01-15T04:02:43;94762.63;;;9.23;64.82
76998;BME280;65930;48.874;10.734;2023-01-15T04:05:14;94762.69;;;9.19;65.14
76998;BME280;65930;48.874;10.734;2023-01-15T04:07:45;94749.16;;;9.25;65.02
76998;BME280;65930;48.874;10.734;2023-01-15T04:10:14;94754.75;;;9.21;65.42
76998;BME280;65930;48.874;10.734;2023-01-15T04:12:42;94755.97;;;9.20;65.36
76998;BME280;65930;48.874;10.734;2023-01-15T04:15:10;94749.59;;;9.23;65.19
76998;BME280;65930;48.874;10.734;2023-01-15T04:17:40;94747.59;;;9.24;65.50
76998;BME280;65930;48.874;10.734;2023-01-15T04:20:10;94761.00;;;9.25;65.44
76998;BME280;65930;48.874;10.734;2023-01-15T04:22:38;94748.34;;;9.28;66.01
76998;BME280;65930;48.874;10.734;2023-01-15T04:25:07;94747.56;;;9.27;66.12
76998;BME280;65930;48.874;10.734;2023-01-15T04:27:36;94739.75;;;9.22;66.42
76998;BME280;65930;48.874;10.734;2023-01-15T04:30:05;94745.19;;;9.26;66.67
76998;BME280;65930;48.874;10.734;2023-01-15T04:32:33;94730.13;;;9.31;66.54
76998;BME280;65930;48.874;10.734;2023-01-15T04:35:02;94745.91;;;9.30;66.45
76998;BME280;65930;48.874;10.734;2023-01-15T04:37:30;94742.72;;;9.32;66.77
76998;BME280;65930;48.874;10.734;2023-01-15T04:39:58;94746.41;;;9.25;67.27
76998;BME280;65930;48.874;10.734;2023-01-15T04:42:26;94740.53;;;9.23;67.64
76998;BME280;65930;48.874;10.734;2023-01-15T04:45:11;94737.28;;;9.28;66.63
76998;BME280;65930;48.874;10.734;2023-01-15T04:47:39;94735.34;;;9.25;66.98
76998;BME280;65930;48.874;10.734;2023-01-15T04:50:09;94725.38;;;9.31;66.74
76998;BME280;65930;48.874;10.734;2023-01-15T04:52:38;94711.19;;;9.29;67.04
76998;BME280;65930;48.874;10.734;2023-01-15T04:55:06;94717.97;;;9.24;67.59
76998;BME280;65930;48.874;10.734;2023-01-15T04:57:34;94701.78;;;9.26;68.04
76998;BME280;65930;48.874;10.734;2023-01-15T05:00:03;94698.53;;;9.32;68.25
76998;BME280;65930;48.874;10.734;2023-01-15T05:02:31;94699.72;;;9.31;68.21
76998;BME280;65930;48.874;10.734;2023-01-15T05:04:59;94701.00;;;9.26;68.17
76998;BME280;65930;48.874;10.734;2023-01-15T05:07:28;94699.09;;;9.23;68.59
76998;BME280;65930;48.874;10.734;2023-01-15T05:09:56;94680.94;;;9.22;69.00
76998;BME280;65930;48.874;10.734;2023-01-15T05:12:24;94690.44;;;9.21;68.90
76998;BME280;65930;48.874;10.734;2023-01-15T05:14:52;94677.81;;;9.20;69.07
76998;BME280;65930;48.874;10.734;2023-01-15T05:17:20;94673.44;;;9.22;68.87
76998;BME280;65930;48.874;10.734;2023-01-15T05:19:48;94655.22;;;9.25;68.99
76998;BME280;65930;48.874;10.734;2023-01-15T05:22:16;94666.28;;;9.25;68.72
76998;BME280;65930;48.874;10.734;2023-01-15T05:24:45;94666.19;;;9.28;68.83
76998;BME280;65930;48.874;10.734;2023-01-15T05:27:13;94656.50;;;9.20;68.87
76998;BME280;65930;48.874;10.734;2023-01-15T05:29:41;94657.69;;;9.19;69.21
76998;BME280;65930;48.874;10.734;2023-01-15T05:32:09;94666.75;;;9.20;68.90
76998;BME280;65930;48.874;10.734;2023-01-15T05:34:37;94662.31;;;9.26;68.89
76998;BME280;65930;48.874;10.734;2023-01-15T05:37:04;94671.47;;;9.23;68.47
76998;BME280;65930;48.874;10.734;2023-01-15T05:39:33;94672.66;;;9.22;68.92
76998;BME280;65930;48.874;10.734;2023-01-15T05:42:02;94665.56;;;9.21;68.99
76998;BME280;65930;48.874;10.734;2023-01-15T05:44:30;94661.25;;;9.20;69.13
76998;BME280;65930;48.874;10.734;2023-01-15T05:47:00;94666.34;;;9.21;69.20
76998;BME280;65930;48.874;10.734;2023-01-15T05:49:31;94661.31;;;9.16;69.76
76998;BME280;65930;48.874;10.734;2023-01-15T05:52:00;94669.91;;;9.22;69.55
76998;BME280;65930;48.874;10.734;2023-01-15T05:54:30;94674.22;;;9.23;69.61
76998;BME280;65930;48.874;10.734;2023-01-15T05:56:58;94683.00;;;9.18;69.97
76998;BME280;65930;48.874;10.734;2023-01-15T05:59:30;94666.34;;;9.21;69.97
76998;BME280;65930;48.874;10.734;2023-01-15T06:01:58;94660.91;;;9.18;70.03
76998;BME280;65930;48.874;10.734;2023-01-15T06:04:26;94665.94;;;9.23;70.02
76998;BME280;65930;48.874;10.734;2023-01-15T06:06:55;94671.00;;;9.24;69.84
76998;BME280;65930;48.874;10.734;2023-01-15T06:09:24;94681.66;;;9.26;70.38
76998;BME280;65930;48.874;10.734;2023-01-15T06:11:54;94670.53;;;9.29;69.95
76998;BME280;65930;48.874;10.734;2023-01-15T06:14:22;94670.97;;;9.28;70.24
76998;BME280;65930;48.874;10.734;2023-01-15T06:16:51;94681.25;;;9.27;70.41
76998;BME280;65930;48.874;10.734;2023-01-15T06:19:19;94678.41;;;9.31;70.39
76998;BME280;65930;48.874;10.734;2023-01-15T06:21:48;94684.78;;;9.28;70.74
76998;BME280;65930;48.874;10.734;2023-01-15T06:24:16;94674.94;;;9.27;70.75
76998;BME280;65930;48.874;10.734;2023-01-15T06:26:45;94666.13;;;9.32;71.32
76998;BME280;65930;48.874;10.734;2023-01-15T06:29:13;94670.97;;;9.28;71.50
76998;BME280;65930;48.874;10.734;2023-01-15T06:31:44;94668.53;;;9.30;71.39
76998;BME280;65930;48.874;10.734;2023-01-15T06:34:14;94660.63;;;9.32;71.60
76998;BME280;65930;48.874;10.734;2023-01-15T06:36:42;94655.78;;;9.36;71.28
76998;BME280;65930;48.874;10.734;2023-01-15T06:39:10;94654.31;;;9.32;71.97
76998;BME280;65930;48.874;10.734;2023-01-15T06:41:38;94669.19;;;9.38;72.13
76998;BME280;65930;48.874;10.734;2023-01-15T06:44:24;94676.69;;;9.37;72.35
76998;BME280;65930;48.874;10.734;2023-01-15T06:47:13;94663.31;;;9.36;72.91
76998;BME280;65930;48.874;10.734;2023-01-15T06:49:51;94684.28;;;9.33;73.40
76998;BME280;65930;48.874;10.734;2023-01-15T06:52:19;94654.31;;;9.32;73.75
76998;BME280;65930;48.874;10.734;2023-01-15T06:54:47;94660.75;;;9.25;73.85
76998;BME280;65930;48.874;10.734;2023-01-15T06:57:15;94675.75;;;9.24;73.87
76998;BME280;65930;48.874;10.734;2023-01-15T06:59:44;94655.28;;;9.21;74.22
76998;BME280;65930;48.874;10.734;2023-01-15T07:02:12;94668.69;;;9.23;74.31
76998;BME280;65930;48.874;10.734;2023-01-15T07:04:40;94669.91;;;9.22;74.88
76998;BME280;65930;48.874;10.734;2023-01-15T07:07:09;94650.69;;;9.15;75.05
76998;BME280;65930;48.874;10.734;2023-01-15T07:09:37;94669.69;;;9.13;75.83
76998;BME280;65930;48.874;10.734;2023-01-15T07:12:05;94672.84;;;9.11;76.25
76998;BME280;65930;48.874;10.734;2023-01-15T07:14:46;94656.06;;;9.02;77.34
76998;BME280;65930;48.874;10.734;2023-01-15T07:17:14;94669.94;;;8.99;77.84
76998;BME280;65930;48.874;10.734;2023-01-15T07:19:42;94682.69;;;8.93;78.04
76998;BME280;65930;48.874;10.734;2023-01-15T07:22:12;94697.53;;;8.79;79.95
76998;BME280;65930;48.874;10.734;2023-01-15T07:24:40;94705.88;;;8.75;79.83
76998;BME280;65930;48.874;10.734;2023-01-15T07:27:08;94709.28;;;8.60;81.69
76998;BME280;65930;48.874;10.734;2023-01-15T07:29:36;94722.28;;;8.36;83.50
76998;BME280;65930;48.874;10.734;2023-01-15T07:32:05;94744.16;;;7.96;85.21
76998;BME280;65930;48.874;10.734;2023-01-15T07:34:33;94733.63;;;7.58;86.50
76998;BME280;65930;48.874;10.734;2023-01-15T07:37:01;94739.25;;;7.47;87.83
76998;BME280;65930;48.874;10.734;2023-01-15T07:39:30;94738.97;;;7.38;88.06
76998;BME280;65930;48.874;10.734;2023-01-15T07:41:58;94746.59;;;7.27;88.41
76998;BME280;65930;48.874;10.734;2023-01-15T07:44:44;94747.06;;;7.22;89.10
76998;BME280;65930;48.874;10.734;2023-01-15T07:47:30;94759.25;;;7.21;89.43
76998;BME280;65930;48.874;10.734;2023-01-15T07:50:18;94769.47;;;7.20;89.37
76998;BME280;65930;48.874;10.734;2023-01-15T07:52:46;94764.91;;;7.06;88.83
76998;BME280;65930;48.874;10.734;2023-01-15T07:55:15;94768.09;;;7.01;88.78
76998;BME280;65930;48.874;10.734;2023-01-15T07:57:43;94780.00;;;6.91;88.19
76998;BME280;65930;48.874;10.734;2023-01-15T08:00:17;94773.81;;;6.80;88.66
76998;BME280;65930;48.874;10.734;2023-01-15T08:02:46;94784.16;;;6.66;88.41
76998;BME280;65930;48.874;10.734;2023-01-15T08:05:16;94792.47;;;6.62;88.70
76998;BME280;65930;48.874;10.734;2023-01-15T08:07:44;94807.78;;;6.59;88.62
76998;BME280;65930;48.874;10.734;2023-01-15T08:10:13;94805.44;;;6.58;89.05
76998;BME280;65930;48.874;10.734;2023-01-15T08:12:43;94810.25;;;6.47;88.95
76998;BME280;65930;48.874;10.734;2023-01-15T08:15:32;94815.00;;;6.39;88.94
76998;BME280;65930;48.874;10.734;2023-01-15T08:18:01;94817.00;;;6.35;89.52
76998;BME280;65930;48.874;10.734;2023-01-15T08:20:30;94821.00;;;6.24;89.56
76998;BME280;65930;48.874;10.734;2023-01-15T08:23:00;94837.09;;;6.29;89.68
76998;BME280;65930;48.874;10.734;2023-01-15T08:25:28;94843.78;;;6.28;89.68
76998;BME280;65930;48.874;10.734;2023-01-15T08:28:01;94848.91;;;6.22;90.36
76998;BME280;65930;48.874;10.734;2023-01-15T08:30:29;94857.53;;;6.20;90.09
76998;BME280;65930;48.874;10.734;2023-01-15T08:33:01;94863.09;;;6.13;90.09
76998;BME280;65930;48.874;10.734;2023-01-15T08:35:29;94861.16;;;6.10;90.10
76998;BME280;65930;48.874;10.734;2023-01-15T08:37:57;94865.50;;;6.04;90.68
76998;BME280;65930;48.874;10.734;2023-01-15T08:40:25;94865.16;;;5.88;90.31
76998;BME280;65930;48.874;10.734;2023-01-15T08:42:53;94865.56;;;5.83;90.05
76998;BME280;65930;48.874;10.734;2023-01-15T08:45:24;94887.97;;;5.78;89.81
76998;BME280;65930;48.874;10.734;2023-01-15T08:47:54;94919.78;;;5.68;89.89
76998;BME280;65930;48.874;10.734;2023-01-15T08:50:23;94903.31;;;5.61;90.31
76998;BME280;65930;48.874;10.734;2023-01-15T08:52:51;94903.31;;;5.58;89.49
76998;BME280;65930;48.874;10.734;2023-01-15T08:55:19;94909.25;;;5.46;89.14
76998;BME280;65930;48.874;10.734;2023-01-15T08:57:48;94928.47;;;5.39;89.38
76998;BME280;65930;48.874;10.734;2023-01-15T09:00:18;94952.00;;;5.32;88.82
76998;BME280;65930;48.874;10.734;2023-01-15T09:02:48;94955.53;;;5.12;86.85
76998;BME280;65930;48.874;10.734;2023-01-15T09:05:16;94964.16;;;5.10;87.54
76998;BME280;65930;48.874;10.734;2023-01-15T09:07:45;94948.47;;;5.00;87.43
76998;BME280;65930;48.874;10.734;2023-01-15T09:10:13;94959.84;;;5.06;85.93
76998;BME280;65930;48.874;10.734;2023-01-15T09:12:41;94964.56;;;5.05;85.04
76998;BME280;65930;48.874;10.734;2023-01-15T09:15:09;94961.03;;;4.94;86.19
76998;BME280;65930;48.874;10.734;2023-01-15T09:17:37;94953.97;;;5.00;86.27
76998;BME280;65930;48.874;10.734;2023-01-15T09:20:10;94959.06;;;4.98;86.82
76998;BME280;65930;48.874;10.734;2023-01-15T09:22:39;94954.34;;;4.88;85.79
76998;BME280;65930;48.874;10.734;2023-01-15T09:25:07;94976.72;;;4.97;86.39
76998;BME280;65930;48.874;10.734;2023-01-15T09:27:38;94978.28;;;4.98;86.13
76998;BME280;65930;48.874;10.734;2023-01-15T09:30:07;94981.78;;;4.88;85.59
76998;BME280;65930;48.874;10.734;2023-01-15T09:32:35;94992.78;;;4.92;86.40
76998;BME280;65930;48.874;10.734;2023-01-15T09:35:03;94991.19;;;4.80;86.17
76998;BME280;65930;48.874;10.734;2023-01-15T09:37:33;94997.47;;;4.84;86.83
76998;BME280;65930;48.874;10.734;2023-01-15T09:40:01;94993.56;;;4.92;85.68
76998;BME280;65930;48.874;10.734;2023-01-15T09:42:41;94994.31;;;4.82;85.80
76998;BME280;65930;48.874;10.734;2023-01-15T09:45:20;94995.84;;;4.76;85.53
76998;BME280;65930;48.874;10.734;2023-01-15T09:48:14;95011.94;;;4.77;86.08
76998;BME280;65930;48.874;10.734;2023-01-15T09:51:01;95005.66;;;4.70;84.70
76998;BME280;65930;48.874;10.734;2023-01-15T09:53:52;95009.16;;;4.67;85.12
76998;BME280;65930;48.874;10.734;2023-01-15T09:56:26;95000.56;;;4.65;85.74
76998;BME280;65930;48.874;10.734;2023-01-15T09:58:58;94988.78;;;4.68;86.29
76998;BME280;65930;48.874;10.734;2023-01-15T10:01:30;95004.47;;;4.64;86.68
76998;BME280;65930;48.874;10.734;2023-01-15T10:04:04;95017.00;;;4.65;86.16
76998;BME280;65930;48.874;10.734;2023-01-15T10:06:42;95023.28;;;4.62;86.48
76998;BME280;65930;48.874;10.734;2023-01-15T10:09:19;95028.34;;;4.60;85.96
76998;BME280;65930;48.874;10.734;2023-01-15T10:11:55;95031.06;;;4.53;84.78
76998;BME280;65930;48.874;10.734;2023-01-15T10:14:49;95053.78;;;4.46;85.96
76998;BME280;65930;48.874;10.734;2023-01-15T10:17:27;95048.28;;;4.50;85.20
76998;BME280;65930;48.874;10.734;2023-01-15T10:19:57;95058.47;;;4.46;86.22
76998;BME280;65930;48.874;10.734;2023-01-15T10:22:43;95054.97;;;4.52;86.11
76998;BME280;65930;48.874;10.734;2023-01-15T10:25:23;95074.94;;;4.53;86.75
76998;BME280;65930;48.874;10.734;2023-01-15T10:28:01;95067.09;;;4.48;85.76
76998;BME280;65930;48.874;10.734;2023-01-15T10:30:40;95059.25;;;4.46;84.90
76998;BME280;65930;48.874;10.734;2023-01-15T10:36:21;95067.91;;;4.55;85.94
76998;BME280;65930;48.874;10.734;2023-01-15T10:38:59;95074.13;;;4.45;85.44
76998;BME280;65930;48.874;10.734;2023-01-15T10:41:51;95082.34;;;4.45;85.54
76998;BME280;65930;48.874;10.734;2023-01-15T10:44:39;95052.94;;;4.35;84.54
76998;BME280;65930;48.874;10.734;2023-01-15T10:47:13;95066.69;;;4.38;85.44
76998;BME280;65930;48.874;10.734;2023-01-15T10:49:43;95061.50;;;4.26;83.58
76998;BME280;65930;48.874;10.734;2023-01-15T10:52:22;95063.09;;;4.27;85.25
76998;BME280;65930;48.874;10.734;2023-01-15T10:54:59;95062.28;;;4.27;85.44
76998;BME280;65930;48.874;10.734;2023-01-15T10:57:41;95069.28;;;4.17;85.16
76998;BME280;65930;48.874;10.734;2023-01-15T11:00:12;95076.34;;;4.18;85.33
76998;BME280;65930;48.874;10.734;2023-01-15T11:02:43;95084.22;;;4.23;85.56
76998;BME280;65930;48.874;10.734;2023-01-15T11:05:14;95082.22;;;4.20;85.97
76998;BME280;65930;48.874;10.734;2023-01-15T11:07:45;95101.41;;;4.20;85.41
76998;BME280;65930;48.874;10.734;2023-01-15T11:10:34;95083.44;;;4.26;86.06
76998;BME280;65930;48.874;10.734;2023-01-15T11:13:20;95096.78;;;4.28;85.33
76998;BME280;65930;48.874;10.734;2023-01-15T11:16:13;95080.25;;;4.21;85.81
76998;BME280;65930;48.874;10.734;2023-01-15T11:19:02;95070.50;;;4.23;85.32
76998;BME280;65930;48.874;10.734;2023-01-15T11:21:53;95083.00;;;4.17;84.48
76998;BME280;65930;48.874;10.734;2023-01-15T11:24:21;95085.72;;;4.14;84.32
76998;BME280;65930;48.874;10.734;2023-01-15T11:26:51;95099.06;;;4.15;84.02
76998;BME280;65930;48.874;10.734;2023-01-15T11:29:30;95080.25;;;4.14;84.67
76998;BME280;65930;48.874;10.734;2023-01-15T11:32:00;95088.84;;;4.16;84.60
76998;BME280;65930;48.874;10.734;2023-01-15T11:34:28;95079.44;;;4.13;84.32
76998;BME280;65930;48.874;10.734;2023-01-15T11:37:02;95090.78;;;4.12;83.06
76998;BME280;65930;48.874;10.734;2023-01-15T11:39:31;95098.63;;;4.13;84.00
76998;BME280;65930;48.874;10.734;2023-01-15T11:42:02;95111.19;;;4.14;83.62
76998;BME280;65930;48.874;10.734;2023-01-15T11:44:54;95115.00;;;4.06;83.32
76998;BME280;65930;48.874;10.734;2023-01-15T11:47:49;95128.31;;;4.01;83.03
76998;BME280;65930;48.874;10.734;2023-01-15T11:50:50;95131.78;;;3.94;82.82
76998;BME280;65930;48.874;10.734;2023-01-15T11:53:23;95114.50;;;3.86;82.67
76998;BME280;65930;48.874;10.734;2023-01-15T11:55:56;95130.06;;;3.75;81.95
76998;BME280;65930;48.874;10.734;2023-01-15T11:58:31;95145.25;;;3.69;82.76
76998;BME280;65930;48.874;10.734;2023-01-15T12:01:02;95140.97;;;3.68;83.70
76998;BME280;65930;48.874;10.734;2023-01-15T12:03:34;95163.63;;;3.69;84.72
76998;BME280;65930;48.874;10.734;2023-01-15T12:06:06;95154.94;;;3.60;84.62
76998;BME280;65930;48.874;10.734;2023-01-15T12:08:45;95144.38;;;3.54;84.96
76998;BME280;65930;48.874;10.734;2023-01-15T12:11:28;95153.31;;;3.51;83.62
76998;BME280;65930;48.874;10.734;2023-01-15T12:14:29;95162.69;;;3.50;83.85
76998;BME280;65930;48.874;10.734;2023-01-15T12:17:12;95178.25;;;3.39;83.15
76998;BME280;65930;48.874;10.734;2023-01-15T12:19:54;95187.63;;;3.38;83.51
76998;BME280;65930;48.874;10.734;2023-01-15T12:22:39;95166.06;;;3.33;84.19
76998;BME280;65930;48.874;10.734;2023-01-15T12:25:32;95185.16;;;3.26;83.58
76998;BME280;65930;48.874;10.734;2023-01-15T12:28:09;95197.16;;;3.18;83.86
76998;BME280;65930;48.874;10.734;2023-01-15T12:30:47;95201.47;;;3.19;83.22
76998;BME280;65930;48.874;10.734;2023-01-15T12:33:40;95225.72;;;3.17;84.26
76998;BME280;65930;48.874;10.734;2023-01-15T12:36:17;95212.75;;;3.14;83.14
76998;BME280;65930;48.874;10.734;2023-01-15T12:38:49;95228.00;;;3.15;83.63
76998;BME280;65930;48.874;10.734;2023-01-15T12:41:23;95233.06;;;3.13;83.05
76998;BME280;65930;48.874;10.734;2023-01-15T12:44:17;95231.50;;;3.12;83.99
76998;BME280;65930;48.874;10.734;2023-01-15T12:47:09;95249.81;;;3.08;83.73
76998;BME280;65930;48.874;10.734;2023-01-15T12:49:47;95244.56;;;2.96;84.15
76998;BME280;65930;48.874;10.734;2023-01-15T12:52:21;95241.09;;;2.99;83.70
76998;BME280;65930;48.874;10.734;2023-01-15T12:54:59;95251.31;;;3.02;84.21
76998;BME280;65930;48.874;10.734;2023-01-15T12:57:32;95257.56;;;3.02;85.60
76998;BME280;65930;48.874;10.734;2023-01-15T13:00:11;95258.41;;;3.06;85.14
76998;BME280;65930;48.874;10.734;2023-01-15T13:02:56;95262.34;;;3.09;84.56
76998;BME280;65930;48.874;10.734;2023-01-15T13:05:29;95247.78;;;3.01;85.16
76998;BME280;65930;48.874;10.734;2023-01-15T13:08:04;95268.84;;;2.97;85.20
76998;BME280;65930;48.874;10.734;2023-01-15T13:10:37;95268.25;;;2.85;84.70
76998;BME280;65930;48.874;10.734;2023-01-15T13:13:14;95265.78;;;2.76;84.68
76998;BME280;65930;48.874;10.734;2023-01-15T13:15:58;95271.84;;;2.62;83.74
76998;BME280;65930;48.874;10.734;2023-01-15T13:18:36;95265.13;;;2.56;85.46
76998;BME280;65930;48.874;10.734;2023-01-15T13:21:16;95278.81;;;2.56;85.97
76998;BME280;65930;48.874;10.734;2023-01-15T13:26:54;95277.81;;;2.42;85.99
76998;BME280;65930;48.874;10.734;2023-01-15T13:29:34;95292.13;;;2.35;85.66
76998;BME280;65930;48.874;10.734;2023-01-15T13:32:13;95293.66;;;2.33;86.30
76998;BME280;65930;48.874;10.734;2023-01-15T13:34:48;95298.28;;;2.29;86.35
76998;BME280;65930;48.874;10.734;2023-01-15T13:37:26;95300.09;;;2.21;86.93
76998;BME280;65930;48.874;10.734;2023-01-15T13:39:59;95300.94;;;2.25;86.07